sensor_id;sensor_type;location;lat;lon;timestamp;temperature;humidity
71084;DHT22;58741;52.672;13.548;2023-10-08T00:01:10;11.40;99.90
71084;DHT22;58741;52.672;13.548;2023-10-08T00:03:41;11.50;99.90
71084;DHT22;58741;52.672;13.548;2023-10-08T00:06:15;11.50;99.90
71084;DHT22;58741;52.672;13.548;2023-10-08T00:08:42;11.50;99.90
71084;DHT22;58741;52.672;13.548;2023-10-08T00:11:09;11.40;99.90
71084;DHT22;58741;52.672;13.548;2023-10-08T00:13:39;11.50;99.90
71084;DHT22;58741;52.672;13.548;2023-10-08T00:16:09;11.40;99.90
71084;DHT22;58741;52.672;13.548;2023-10-08T00:18:38;11.40;99.90
71084;DHT22;58741;52.672;13.548;2023-10-08T00:21:08;11.50;99.90
71084;DHT22;58741;52.672;13.548;2023-10-08T00:23:38;11.50;99.90
71084;DHT22;58741;52.672;13.548;2023-10-08T00:26:09;11.50;99.90
71084;DHT22;58741;52.672;13.548;2023-10-08T00:28:36;11.50;99.90
71084;DHT22;58741;52.672;13.548;2023-10-08T00:31:02;11.50;99.90
71084;DHT22;58741;52.672;13.548;2023-10-08T00:33:38;11.50;99.90
71084;DHT22;58741;52.672;13.548;2023-10-08T00:36:06;11.50;99.90
71084;DHT22;58741;52.672;13.548;2023-10-08T00:38:44;11.50;99.90
71084;DHT22;58741;52.672;13.548;2023-10-08T00:41:14;11.50;99.90
71084;DHT22;58741;52.672;13.548;2023-10-08T00:43:42;11.50;99.90
71084;DHT22;58741;52.672;13.548;2023-10-08T00:46:11;11.50;99.90
71084;DHT22;58741;52.672;13.548;2023-10-08T00:49:04;11.50;99.90
71084;DHT22;58741;52.672;13.548;2023-10-08T00:51:56;11.50;99.90
71084;DHT22;58741;52.672;13.548;2023-10-08T00:54:44;11.50;99.90
71084;DHT22;58741;52.672;13.548;2023-10-08T00:57:21;11.50;99.90
71084;DHT22;58741;52.672;13.548;2023-10-08T00:59:49;11.50;99.90
71084;DHT22;58741;52.672;13.548;2023-10-08T01:02:30;11.50;99.90
71084;DHT22;58741;52.672;13.548;2023-10-08T01:05:16;11.50;99.90
71084;DHT22;58741;52.672;13.548;2023-10-08T01:07:52;11.50;99.90
71084;DHT22;58741;52.672;13.548;2023-10-08T01:10:19;11.50;99.90
71084;DHT22;58741;52.672;13.548;2023-10-08T01:12:47;11.50;99.90
71084;DHT22;58741;52.672;13.548;2023-10-08T01:15:21;11.50;99.90
71084;DHT22;58741;52.672;13.548;2023-10-08T01:17:55;11.50;99.90
71084;DHT22;58741;52.672;13.548;2023-10-08T01:20:28;11.50;99.90
71084;DHT22;58741;52.672;13.548;2023-10-08T01:23:08;11.50;99.90
71084;DHT22;58741;52.672;13.548;2023-10-08T01:25:41;11.50;99.90
71084;DHT22;58741;52.672;13.548;2023-10-08T01:28:09;11.50;99.90
71084;DHT22;58741;52.672;13.548;2023-10-08T01:30:59;11.40;99.90
71084;DHT22;58741;52.672;13.548;2023-10-08T01:33:27;11.40;99.90
71084;DHT22;58741;52.672;13.548;2023-10-08T01:35:58;11.40;99.90
71084;DHT22;58741;52.672;13.548;2023-10-08T01:38:32;11.40;99.90
71084;DHT22;58741;52.672;13.548;2023-10-08T01:41:02;11.40;99.90
71084;DHT22;58741;52.672;13.548;2023-10-08T01:43:48;11.40;99.90
71084;DHT22;58741;52.672;13.548;2023-10-08T01:46:19;11.50;99.90
71084;DHT22;58741;52.672;13.548;2023-10-08T01:48:49;11.40;99.90
71084;DHT22;58741;52.672;13.548;2023-10-08T01:51:20;11.40;99.90
71084;DHT22;58741;52.672;13.548;2023-10-08T01:53:53;11.40;99.90
71084;DHT22;58741;52.672;13.548;2023-10-08T01:56:21;11.40;99.90
71084;DHT22;58741;52.672;13.548;2023-10-08T01:58:47;11.40;99.90
71084;DHT22;58741;52.672;13.548;2023-10-08T02:01:19;11.40;99.90
71084;DHT22;58741;52.672;13.548;2023-10-08T02:03:46;11.40;99.90
71084;DHT22;58741;52.672;13.548;2023-10-08T02:06:13;11.40;99.90
71084;DHT22;58741;52.672;13.548;2023-10-08T02:08:40;11.40;99.90
71084;DHT22;58741;52.672;13.548;2023-10-08T02:11:08;11.40;99.90
71084;DHT22;58741;52.672;13.548;2023-10-08T02:13:35;11.40;99.90
71084;DHT22;58741;52.672;13.548;2023-10-08T02:16:03;11.40;99.90
71084;DHT22;58741;52.672;13.548;2023-10-08T02:18:30;11.40;99.90
71084;DHT22;58741;52.672;13.548;2023-10-08T02:20:58;11.40;99.90
71084;DHT22;58741;52.672;13.548;2023-10-08T02:23:25;11.40;99.90
71084;DHT22;58741;52.672;13.548;2023-10-08T02:25:52;11.40;99.90
71084;DHT22;58741;52.672;13.548;2023-10-08T02:28:21;11.40;99.90
71084;DHT22;58741;52.672;13.548;2023-10-08T02:30:50;11.40;99.90
71084;DHT22;58741;52.672;13.548;2023-10-08T02:33:17;11.40;99.90
71084;DHT22;58741;52.672;13.548;2023-10-08T02:35:46;11.40;99.90
71084;DHT22;58741;52.672;13.548;2023-10-08T02:38:15;11.30;99.90
71084;DHT22;58741;52.672;13.548;2023-10-08T02:40:43;11.40;99.90
71084;DHT22;58741;52.672;13.548;2023-10-08T02:43:17;11.40;99.90
71084;DHT22;58741;52.672;13.548;2023-10-08T02:45:45;11.30;99.90
71084;DHT22;58741;52.672;13.548;2023-10-08T02:48:16;11.30;99.90
71084;DHT22;58741;52.672;13.548;2023-10-08T02:50:43;11.30;99.90
71084;DHT22;58741;52.672;13.548;2023-10-08T02:53:14;11.30;99.90
71084;DHT22;58741;52.672;13.548;2023-10-08T02:55:50;11.30;99.90
71084;DHT22;58741;52.672;13.548;2023-10-08T02:58:17;11.30;99.90
71084;DHT22;58741;52.672;13.548;2023-10-08T03:00:48;11.30;99.90
71084;DHT22;58741;52.672;13.548;2023-10-08T03:03:16;11.30;99.90
71084;DHT22;58741;52.672;13.548;2023-10-08T03:05:51;11.30;99.90
71084;DHT22;58741;52.672;13.548;2023-10-08T03:08:19;11.30;99.90
71084;DHT22;58741;52.672;13.548;2023-10-08T03:10:52;11.30;99.90
71084;DHT22;58741;52.672;13.548;2023-10-08T03:13:23;11.30;99.90
71084;DHT22;58741;52.672;13.548;2023-10-08T03:15:50;11.30;99.90
71084;DHT22;58741;52.672;13.548;2023-10-08T03:18:29;11.30;99.90
71084;DHT22;58741;52.672;13.548;2023-10-08T03:21:04;11.30;99.90
71084;DHT22;58741;52.672;13.548;2023-10-08T03:23:32;11.30;99.90
71084;DHT22;58741;52.672;13.548;2023-10-08T03:26:04;11.30;99.90
71084;DHT22;58741;52.672;13.548;2023-10-08T03:29:00;11.30;99.90
71084;DHT22;58741;52.672;13.548;2023-10-08T03:31:31;11.30;99.90
71084;DHT22;58741;52.672;13.548;2023-10-08T03:34:18;11.20;99.90
71084;DHT22;58741;52.672;13.548;2023-10-08T03:36:47;11.20;99.90
71084;DHT22;58741;52.672;13.548;2023-10-08T03:39:16;11.20;99.90
71084;DHT22;58741;52.672;13.548;2023-10-08T03:41:47;11.20;99.90
71084;DHT22;58741;52.672;13.548;2023-10-08T03:44:33;11.10;99.90
71084;DHT22;58741;52.672;13.548;2023-10-08T03:47:04;11.10;99.90
71084;DHT22;58741;52.672;13.548;2023-10-08T03:49:37;11.10;99.90
71084;DHT22;58741;52.672;13.548;2023-10-08T03:52:11;11.10;99.90
71084;DHT22;58741;52.672;13.548;2023-10-08T03:54:39;11.10;99.90
71084;DHT22;58741;52.672;13.548;2023-10-08T03:57:14;11.00;99.90
71084;DHT22;58741;52.672;13.548;2023-10-08T03:59:51;11.00;99.90
71084;DHT22;58741;52.672;13.548;2023-10-08T04:02:25;11.00;99.90
71084;DHT22;58741;52.672;13.548;2023-10-08T04:05:13;11.00;99.90
71084;DHT22;58741;52.672;13.548;2023-10-08T04:07:46;11.00;99.90
71084;DHT22;58741;52.672;13.548;2023-10-08T04:10:22;11.00;99.90
71084;DHT22;58741;52.672;13.548;2023-10-08T04:13:04;11.00;99.90
71084;DHT22;58741;52.672;13.548;2023-10-08T04:15:38;10.90;99.90
71084;DHT22;58741;52.672;13.548;2023-10-08T04:18:09;10.90;99.90
71084;DHT22;58741;52.672;13.548;2023-10-08T04:20:36;10.90;99.90
71084;DHT22;58741;52.672;13.548;2023-10-08T04:23:08;10.90;99.90
71084;DHT22;58741;52.672;13.548;2023-10-08T04:25:55;10.90;99.90
71084;DHT22;58741;52.672;13.548;2023-10-08T04:28:23;10.90;99.90
71084;DHT22;58741;52.672;13.548;2023-10-08T04:30:55;10.90;99.90
71084;DHT22;58741;52.672;13.548;2023-10-08T04:33:27;10.80;99.90
71084;DHT22;58741;52.672;13.548;2023-10-08T04:35:58;10.80;99.90
71084;DHT22;58741;52.672;13.548;2023-10-08T04:38:28;10.80;99.90
71084;DHT22;58741;52.672;13.548;2023-10-08T04:40:56;10.70;99.90
71084;DHT22;58741;52.672;13.548;2023-10-08T04:43:28;10.70;99.90
71084;DHT22;58741;52.672;13.548;2023-10-08T04:45:58;10.60;99.90
71084;DHT22;58741;52.672;13.548;2023-10-08T04:48:25;10.60;99.90
71084;DHT22;58741;52.672;13.548;2023-10-08T04:50:59;10.60;99.90
71084;DHT22;58741;52.672;13.548;2023-10-08T04:53:27;10.50;99.90
71084;DHT22;58741;52.672;13.548;2023-10-08T04:56:05;10.50;99.90
71084;DHT22;58741;52.672;13.548;2023-10-08T04:58:34;10.40;99.90
71084;DHT22;58741;52.672;13.548;2023-10-08T05:01:04;10.30;99.90
71084;DHT22;58741;52.672;13.548;2023-10-08T05:03:51;10.30;99.90
71084;DHT22;58741;52.672;13.548;2023-10-08T05:06:26;10.20;99.90
71084;DHT22;58741;52.672;13.548;2023-10-08T05:09:13;10.20;99.90
71084;DHT22;58741;52.672;13.548;2023-10-08T05:11:47;10.10;99.90
71084;DHT22;58741;52.672;13.548;2023-10-08T05:14:21;10.00;99.90
71084;DHT22;58741;52.672;13.548;2023-10-08T05:17:01;10.00;99.90
71084;DHT22;58741;52.672;13.548;2023-10-08T05:19:37;9.90;99.90
71084;DHT22;58741;52.672;13.548;2023-10-08T05:22:08;9.90;99.90
71084;DHT22;58741;52.672;13.548;2023-10-08T05:25:04;9.80;99.90
71084;DHT22;58741;52.672;13.548;2023-10-08T05:27:53;9.80;99.90
71084;DHT22;58741;52.672;13.548;2023-10-08T05:30:24;9.70;99.90
71084;DHT22;58741;52.672;13.548;2023-10-08T05:33:04;9.70;99.90
71084;DHT22;58741;52.672;13.548;2023-10-08T05:35:52;9.60;99.90
71084;DHT22;58741;52.672;13.548;2023-10-08T05:38:36;9.60;99.90
71084;DHT22;58741;52.672;13.548;2023-10-08T05:41:15;9.50;99.90
71084;DHT22;58741;52.672;13.548;2023-10-08T05:43:55;9.50;99.90
71084;DHT22;58741;52.672;13.548;2023-10-08T05:46:40;9.50;99.90
71084;DHT22;58741;52.672;13.548;2023-10-08T05:49:30;9.40;99.90
71084;DHT22;58741;52.672;13.548;2023-10-08T05:51:57;9.30;99.90
71084;DHT22;58741;52.672;13.548;2023-10-08T05:54:31;9.30;99.90
71084;DHT22;58741;52.672;13.548;2023-10-08T05:59:33;9.30;99.90
71084;DHT22;58741;52.672;13.548;2023-10-08T06:02:29;9.20;99.90
71084;DHT22;58741;52.672;13.548;2023-10-08T06:05:07;9.20;99.90
71084;DHT22;58741;52.672;13.548;2023-10-08T06:07:49;9.20;99.90
71084;DHT22;58741;52.672;13.548;2023-10-08T06:15:37;9.20;99.90
71084;DHT22;58741;52.672;13.548;2023-10-08T06:18:17;9.20;99.90
71084;DHT22;58741;52.672;13.548;2023-10-08T06:20:46;9.20;99.90
71084;DHT22;58741;52.672;13.548;2023-10-08T06:23:14;9.20;99.90
71084;DHT22;58741;52.672;13.548;2023-10-08T06:25:46;9.20;99.90
71084;DHT22;58741;52.672;13.548;2023-10-08T06:28:18;9.30;99.90
71084;DHT22;58741;52.672;13.548;2023-10-08T06:30:49;9.30;99.90
71084;DHT22;58741;52.672;13.548;2023-10-08T06:33:16;9.30;99.90
71084;DHT22;58741;52.672;13.548;2023-10-08T06:35:46;9.40;99.90
71084;DHT22;58741;52.672;13.548;2023-10-08T06:38:32;9.30;99.90
71084;DHT22;58741;52.672;13.548;2023-10-08T06:41:04;9.40;99.90
71084;DHT22;58741;52.672;13.548;2023-10-08T06:43:58;9.50;99.90
71084;DHT22;58741;52.672;13.548;2023-10-08T06:46:41;9.50;99.90
71084;DHT22;58741;52.672;13.548;2023-10-08T06:49:09;9.60;99.90
71084;DHT22;58741;52.672;13.548;2023-10-08T06:51:41;9.60;99.90
71084;DHT22;58741;52.672;13.548;2023-10-08T06:54:10;9.70;99.90
71084;DHT22;58741;52.672;13.548;2023-10-08T06:56:40;9.70;99.90
71084;DHT22;58741;52.672;13.548;2023-10-08T06:59:13;9.80;99.90
71084;DHT22;58741;52.672;13.548;2023-10-08T07:01:41;9.90;99.90
71084;DHT22;58741;52.672;13.548;2023-10-08T07:04:14;10.00;99.90
71084;DHT22;58741;52.672;13.548;2023-10-08T07:06:42;10.00;99.90
71084;DHT22;58741;52.672;13.548;2023-10-08T07:09:10;10.10;99.90
71084;DHT22;58741;52.672;13.548;2023-10-08T07:11:50;10.20;99.90
71084;DHT22;58741;52.672;13.548;2023-10-08T07:16:57;10.40;99.90
71084;DHT22;58741;52.672;13.548;2023-10-08T07:19:30;10.50;99.90
71084;DHT22;58741;52.672;13.548;2023-10-08T07:22:08;10.60;99.90
71084;DHT22;58741;52.672;13.548;2023-10-08T07:24:48;10.60;99.90
71084;DHT22;58741;52.672;13.548;2023-10-08T07:27:18;10.70;99.90
71084;DHT22;58741;52.672;13.548;2023-10-08T07:29:49;10.80;99.90
71084;DHT22;58741;52.672;13.548;2023-10-08T07:32:16;10.90;99.90
71084;DHT22;58741;52.672;13.548;2023-10-08T07:34:45;11.00;99.90
71084;DHT22;58741;52.672;13.548;2023-10-08T07:37:12;11.10;99.90
71084;DHT22;58741;52.672;13.548;2023-10-08T07:39:40;11.20;99.90
71084;DHT22;58741;52.672;13.548;2023-10-08T07:42:14;11.40;99.90
71084;DHT22;58741;52.672;13.548;2023-10-08T07:44:41;11.50;99.90
71084;DHT22;58741;52.672;13.548;2023-10-08T07:47:08;11.60;99.90
71084;DHT22;58741;52.672;13.548;2023-10-08T07:49:41;11.60;99.90
71084;DHT22;58741;52.672;13.548;2023-10-08T07:52:11;11.80;99.90
71084;DHT22;58741;52.672;13.548;2023-10-08T07:54:43;11.90;99.90
71084;DHT22;58741;52.672;13.548;2023-10-08T07:57:10;12.00;99.90
71084;DHT22;58741;52.672;13.548;2023-10-08T07:59:40;12.10;99.90
71084;DHT22;58741;52.672;13.548;2023-10-08T08:02:18;12.30;99.90
71084;DHT22;58741;52.672;13.548;2023-10-08T08:04:51;12.40;99.90
71084;DHT22;58741;52.672;13.548;2023-10-08T08:07:21;12.50;99.90
71084;DHT22;58741;52.672;13.548;2023-10-08T08:09:50;12.70;99.90
71084;DHT22;58741;52.672;13.548;2023-10-08T08:12:22;12.80;99.90
71084;DHT22;58741;52.672;13.548;2023-10-08T08:14:51;12.90;99.90
71084;DHT22;58741;52.672;13.548;2023-10-08T08:17:19;13.00;99.90
71084;DHT22;58741;52.672;13.548;2023-10-08T08:19:47;13.10;99.90
71084;DHT22;58741;52.672;13.548;2023-10-08T08:22:17;13.20;99.90
71084;DHT22;58741;52.672;13.548;2023-10-08T08:24:57;13.30;99.90
71084;DHT22;58741;52.672;13.548;2023-10-08T08:27:43;13.40;99.90
71084;DHT22;58741;52.672;13.548;2023-10-08T08:30:15;13.50;99.90
71084;DHT22;58741;52.672;13.548;2023-10-08T08:32:44;13.60;99.90
71084;DHT22;58741;52.672;13.548;2023-10-08T08:35:12;13.60;99.90
71084;DHT22;58741;52.672;13.548;2023-10-08T08:37:43;13.70;99.90
71084;DHT22;58741;52.672;13.548;2023-10-08T08:40:13;13.70;99.90
71084;DHT22;58741;52.672;13.548;2023-10-08T08:42:48;13.80;99.90
71084;DHT22;58741;52.672;13.548;2023-10-08T08:45:22;13.80;99.90
71084;DHT22;58741;52.672;13.548;2023-10-08T08:47:51;13.90;99.90
71084;DHT22;58741;52.672;13.548;2023-10-08T08:50:19;14.00;99.90
71084;DHT22;58741;52.672;13.548;2023-10-08T08:52:47;14.10;99.90
71084;DHT22;58741;52.672;13.548;2023-10-08T08:55:13;14.20;99.90
71084;DHT22;58741;52.672;13.548;2023-10-08T08:57:47;14.30;99.90
71084;DHT22;58741;52.672;13.548;2023-10-08T09:00:15;14.40;99.90
71084;DHT22;58741;52.672;13.548;2023-10-08T09:02:45;14.50;99.90
71084;DHT22;58741;52.672;13.548;2023-10-08T09:05:15;14.50;99.90
71084;DHT22;58741;52.672;13.548;2023-10-08T09:10:24;14.60;99.90
71084;DHT22;58741;52.672;13.548;2023-10-08T09:12:56;14.60;99.90
71084;DHT22;58741;52.672;13.548;2023-10-08T09:15:27;14.80;99.90
71084;DHT22;58741;52.672;13.548;2023-10-08T09:17:54;14.80;99.90
71084;DHT22;58741;52.672;13.548;2023-10-08T09:20:23;15.00;99.90
71084;DHT22;58741;52.672;13.548;2023-10-08T09:23:10;15.10;99.90
71084;DHT22;58741;52.672;13.548;2023-10-08T09:25:44;15.10;99.90
71084;DHT22;58741;52.672;13.548;2023-10-08T09:28:11;15.10;99.90
71084;DHT22;58741;52.672;13.548;2023-10-08T09:30:42;15.00;99.90
71084;DHT22;58741;52.672;13.548;2023-10-08T09:33:12;15.00;99.90
71084;DHT22;58741;52.672;13.548;2023-10-08T09:35:39;15.00;99.90
71084;DHT22;58741;52.672;13.548;2023-10-08T09:38:07;15.00;99.90
71084;DHT22;58741;52.672;13.548;2023-10-08T09:40:41;15.10;99.90
71084;DHT22;58741;52.672;13.548;2023-10-08T09:43:11;15.20;99.90
71084;DHT22;58741;52.672;13.548;2023-10-08T09:45:50;15.20;99.90
71084;DHT22;58741;52.672;13.548;2023-10-08T09:48:20;15.30;99.90
71084;DHT22;58741;52.672;13.548;2023-10-08T09:50:51;15.40;99.90
71084;DHT22;58741;52.672;13.548;2023-10-08T09:53:25;15.40;99.90
71084;DHT22;58741;52.672;13.548;2023-10-08T09:55:56;15.50;99.90
71084;DHT22;58741;52.672;13.548;2023-10-08T09:58:24;15.50;99.90
71084;DHT22;58741;52.672;13.548;2023-10-08T10:00:54;15.50;99.90
71084;DHT22;58741;52.672;13.548;2023-10-08T10:03:26;15.60;99.90
71084;DHT22;58741;52.672;13.548;2023-10-08T10:05:54;15.70;99.90
71084;DHT22;58741;52.672;13.548;2023-10-08T10:08:26;15.80;99.90
71084;DHT22;58741;52.672;13.548;2023-10-08T10:10:59;15.90;99.90
71084;DHT22;58741;52.672;13.548;2023-10-08T10:13:41;16.00;99.90
71084;DHT22;58741;52.672;13.548;2023-10-08T10:16:10;16.00;99.90
71084;DHT22;58741;52.672;13.548;2023-10-08T10:18:37;16.00;99.90
71084;DHT22;58741;52.672;13.548;2023-10-08T10:23:40;16.20;99.90
71084;DHT22;58741;52.672;13.548;2023-10-08T10:26:26;16.30;99.90
71084;DHT22;58741;52.672;13.548;2023-10-08T10:31:38;16.30;99.80
71084;DHT22;58741;52.672;13.548;2023-10-08T10:34:08;16.40;98.60
71084;DHT22;58741;52.672;13.548;2023-10-08T10:36:36;16.40;98.90
71084;DHT22;58741;52.672;13.548;2023-10-08T10:39:03;16.50;97.40
71084;DHT22;58741;52.672;13.548;2023-10-08T10:41:47;16.50;97.00
71084;DHT22;58741;52.672;13.548;2023-10-08T10:44:15;16.60;96.10
71084;DHT22;58741;52.672;13.548;2023-10-08T10:46:43;16.50;92.70
71084;DHT22;58741;52.672;13.548;2023-10-08T10:49:21;16.50;92.70
71084;DHT22;58741;52.672;13.548;2023-10-08T10:51:58;16.50;93.80
71084;DHT22;58741;52.672;13.548;2023-10-08T10:54:25;16.60;94.00
71084;DHT22;58741;52.672;13.548;2023-10-08T10:56:53;16.70;93.40
71084;DHT22;58741;52.672;13.548;2023-10-08T10:59:31;16.70;95.10
71084;DHT22;58741;52.672;13.548;2023-10-08T11:02:06;16.80;93.50
71084;DHT22;58741;52.672;13.548;2023-10-08T11:04:57;16.80;90.40
71084;DHT22;58741;52.672;13.548;2023-10-08T11:07:47;16.80;92.10
71084;DHT22;58741;52.672;13.548;2023-10-08T11:10:15;16.90;90.40
71084;DHT22;58741;52.672;13.548;2023-10-08T11:12:48;16.90;90.50
71084;DHT22;58741;52.672;13.548;2023-10-08T11:15:20;16.90;90.60
71084;DHT22;58741;52.672;13.548;2023-10-08T11:17:50;17.00;86.70
71084;DHT22;58741;52.672;13.548;2023-10-08T11:20:27;17.00;90.70
71084;DHT22;58741;52.672;13.548;2023-10-08T11:22:55;17.10;90.10
71084;DHT22;58741;52.672;13.548;2023-10-08T11:25:25;17.10;83.70
71084;DHT22;58741;52.672;13.548;2023-10-08T11:27:57;17.10;80.80
71084;DHT22;58741;52.672;13.548;2023-10-08T11:30:35;17.10;78.70
71084;DHT22;58741;52.672;13.548;2023-10-08T11:33:02;17.10;86.50
71084;DHT22;58741;52.672;13.548;2023-10-08T11:35:33;17.00;85.00
71084;DHT22;58741;52.672;13.548;2023-10-08T11:38:01;17.00;82.70
71084;DHT22;58741;52.672;13.548;2023-10-08T11:40:29;17.00;84.90
71084;DHT22;58741;52.672;13.548;2023-10-08T11:42:58;17.00;81.30
71084;DHT22;58741;52.672;13.548;2023-10-08T11:45:30;17.10;79.40
71084;DHT22;58741;52.672;13.548;2023-10-08T11:48:05;17.20;86.00
71084;DHT22;58741;52.672;13.548;2023-10-08T11:50:38;17.30;82.90
71084;DHT22;58741;52.672;13.548;2023-10-08T11:53:07;17.40;82.70
71084;DHT22;58741;52.672;13.548;2023-10-08T11:55:35;17.50;81.60
71084;DHT22;58741;52.672;13.548;2023-10-08T11:58:06;17.50;80.90
71084;DHT22;58741;52.672;13.548;2023-10-08T12:00:39;17.50;77.40
71084;DHT22;58741;52.672;13.548;2023-10-08T12:03:15;17.50;77.70
71084;DHT22;58741;52.672;13.548;2023-10-08T12:05:47;17.50;79.60
71084;DHT22;58741;52.672;13.548;2023-10-08T12:08:15;17.60;81.70
71084;DHT22;58741;52.672;13.548;2023-10-08T12:10:45;17.60;81.60
71084;DHT22;58741;52.672;13.548;2023-10-08T12:13:13;17.50;80.40
71084;DHT22;58741;52.672;13.548;2023-10-08T12:15:41;17.50;80.60
71084;DHT22;58741;52.672;13.548;2023-10-08T12:18:11;17.50;81.50
71084;DHT22;58741;52.672;13.548;2023-10-08T12:20:42;17.50;74.30
71084;DHT22;58741;52.672;13.548;2023-10-08T12:23:13;17.50;77.70
71084;DHT22;58741;52.672;13.548;2023-10-08T12:25:52;17.50;81.20
71084;DHT22;58741;52.672;13.548;2023-10-08T12:28:19;17.60;79.00
71084;DHT22;58741;52.672;13.548;2023-10-08T12:30:46;17.60;77.50
71084;DHT22;58741;52.672;13.548;2023-10-08T12:33:13;17.60;74.80
71084;DHT22;58741;52.672;13.548;2023-10-08T12:35:43;17.50;77.00
71084;DHT22;58741;52.672;13.548;2023-10-08T12:38:11;17.40;79.50
71084;DHT22;58741;52.672;13.548;2023-10-08T12:40:40;17.40;78.80
71084;DHT22;58741;52.672;13.548;2023-10-08T12:43:26;17.50;75.30
71084;DHT22;58741;52.672;13.548;2023-10-08T12:45:54;17.50;72.30
71084;DHT22;58741;52.672;13.548;2023-10-08T12:48:24;17.50;78.20
71084;DHT22;58741;52.672;13.548;2023-10-08T12:50:53;17.50;77.20
71084;DHT22;58741;52.672;13.548;2023-10-08T12:53:25;17.40;67.30
71084;DHT22;58741;52.672;13.548;2023-10-08T12:56:01;17.20;72.50
71084;DHT22;58741;52.672;13.548;2023-10-08T12:58:36;17.20;76.60
71084;DHT22;58741;52.672;13.548;2023-10-08T13:01:11;17.10;75.00
71084;DHT22;58741;52.672;13.548;2023-10-08T13:03:38;17.10;74.00
71084;DHT22;58741;52.672;13.548;2023-10-08T13:06:10;17.10;75.60
71084;DHT22;58741;52.672;13.548;2023-10-08T13:08:58;17.00;74.00
71084;DHT22;58741;52.672;13.548;2023-10-08T13:11:27;17.00;71.70
71084;DHT22;58741;52.672;13.548;2023-10-08T13:13:57;16.90;72.30
71084;DHT22;58741;52.672;13.548;2023-10-08T13:16:26;16.90;75.10
71084;DHT22;58741;52.672;13.548;2023-10-08T13:18:53;16.90;76.00
71084;DHT22;58741;52.672;13.548;2023-10-08T13:21:23;16.90;74.90
71084;DHT22;58741;52.672;13.548;2023-10-08T13:23:55;16.90;75.50
71084;DHT22;58741;52.672;13.548;2023-10-08T13:26:27;16.90;75.10
71084;DHT22;58741;52.672;13.548;2023-10-08T13:28:58;16.80;67.30
71084;DHT22;58741;52.672;13.548;2023-10-08T13:31:26;16.80;71.90
71084;DHT22;58741;52.672;13.548;2023-10-08T13:33:53;16.70;72.30
71084;DHT22;58741;52.672;13.548;2023-10-08T13:36:23;16.60;72.90
71084;DHT22;58741;52.672;13.548;2023-10-08T13:38:50;16.50;75.40
71084;DHT22;58741;52.672;13.548;2023-10-08T13:41:18;16.40;75.00
71084;DHT22;58741;52.672;13.548;2023-10-08T13:43:46;16.30;75.40
71084;DHT22;58741;52.672;13.548;2023-10-08T13:46:15;16.30;76.10
71084;DHT22;58741;52.672;13.548;2023-10-08T13:48:47;16.20;76.30
71084;DHT22;58741;52.672;13.548;2023-10-08T13:51:18;16.10;77.80
71084;DHT22;58741;52.672;13.548;2023-10-08T13:53:53;16.00;79.30
71084;DHT22;58741;52.672;13.548;2023-10-08T13:56:21;15.90;75.10
71084;DHT22;58741;52.672;13.548;2023-10-08T13:58:54;15.80;79.40
71084;DHT22;58741;52.672;13.548;2023-10-08T14:01:33;15.80;81.20
71084;DHT22;58741;52.672;13.548;2023-10-08T14:04:01;15.80;80.20
71084;DHT22;58741;52.672;13.548;2023-10-08T14:06:34;15.70;79.80
71084;DHT22;58741;52.672;13.548;2023-10-08T14:09:04;15.60;80.30
71084;DHT22;58741;52.672;13.548;2023-10-08T14:11:35;15.60;81.20
71084;DHT22;58741;52.672;13.548;2023-10-08T14:14:02;15.50;82.60
71084;DHT22;58741;52.672;13.548;2023-10-08T14:16:35;15.50;83.40
71084;DHT22;58741;52.672;13.548;2023-10-08T14:19:02;15.40;84.10
71084;DHT22;58741;52.672;13.548;2023-10-08T14:21:31;15.40;78.70
71084;DHT22;58741;52.672;13.548;2023-10-08T14:24:03;15.30;82.20
71084;DHT22;58741;52.672;13.548;2023-10-08T14:28:18;15.30;82.20
71084;DHT22;58741;52.672;13.548;2023-10-08T14:31:08;15.30;82.10
71084;DHT22;58741;52.672;13.548;2023-10-08T14:33:35;15.20;78.70
71084;DHT22;58741;52.672;13.548;2023-10-08T14:36:09;15.20;80.50
71084;DHT22;58741;52.672;13.548;2023-10-08T14:38:55;15.20;80.80
71084;DHT22;58741;52.672;13.548;2023-10-08T14:41:40;15.10;82.30
71084;DHT22;58741;52.672;13.548;2023-10-08T14:44:26;15.10;84.30
71084;DHT22;58741;52.672;13.548;2023-10-08T14:46:54;15.10;87.00
71084;DHT22;58741;52.672;13.548;2023-10-08T14:49:22;15.10;87.10
71084;DHT22;58741;52.672;13.548;2023-10-08T14:51:49;15.10;88.30
71084;DHT22;58741;52.672;13.548;2023-10-08T14:54:16;15.10;88.40
71084;DHT22;58741;52.672;13.548;2023-10-08T14:56:42;15.10;86.00
71084;DHT22;58741;52.672;13.548;2023-10-08T14:59:09;15.10;86.80
71084;DHT22;58741;52.672;13.548;2023-10-08T15:01:36;15.20;87.40
71084;DHT22;58741;52.672;13.548;2023-10-08T15:04:03;15.10;88.40
71084;DHT22;58741;52.672;13.548;2023-10-08T15:06:31;15.20;86.40
71084;DHT22;58741;52.672;13.548;2023-10-08T15:08:58;15.10;86.50
71084;DHT22;58741;52.672;13.548;2023-10-08T15:11:25;15.00;86.10
71084;DHT22;58741;52.672;13.548;2023-10-08T15:13:53;14.90;87.40
71084;DHT22;58741;52.672;13.548;2023-10-08T15:16:20;14.90;85.20
71084;DHT22;58741;52.672;13.548;2023-10-08T15:18:49;14.80;87.90
71084;DHT22;58741;52.672;13.548;2023-10-08T15:21:17;14.80;86.70
71084;DHT22;58741;52.672;13.548;2023-10-08T15:23:45;14.60;88.80
71084;DHT22;58741;52.672;13.548;2023-10-08T15:26:12;14.60;89.80
71084;DHT22;58741;52.672;13.548;2023-10-08T15:28:39;14.50;90.50
71084;DHT22;58741;52.672;13.548;2023-10-08T15:31:06;14.50;90.70
71084;DHT22;58741;52.672;13.548;2023-10-08T15:33:34;14.40;91.30
71084;DHT22;58741;52.672;13.548;2023-10-08T15:36:00;14.30;91.90
71084;DHT22;58741;52.672;13.548;2023-10-08T15:38:27;14.30;92.40
71084;DHT22;58741;52.672;13.548;2023-10-08T15:40:54;14.20;92.80
71084;DHT22;58741;52.672;13.548;2023-10-08T15:43:21;14.10;93.10
71084;DHT22;58741;52.672;13.548;2023-10-08T15:45:48;14.10;93.50
71084;DHT22;58741;52.672;13.548;2023-10-08T15:48:14;14.00;93.50
71084;DHT22;58741;52.672;13.548;2023-10-08T15:50:41;14.00;93.80
71084;DHT22;58741;52.672;13.548;2023-10-08T15:53:08;13.90;94.20
71084;DHT22;58741;52.672;13.548;2023-10-08T15:55:36;13.90;94.40
71084;DHT22;58741;52.672;13.548;2023-10-08T15:58:02;13.70;94.60
71084;DHT22;58741;52.672;13.548;2023-10-08T16:00:29;13.70;94.90
71084;DHT22;58741;52.672;13.548;2023-10-08T16:02:56;13.60;95.10
71084;DHT22;58741;52.672;13.548;2023-10-08T16:05:23;13.60;95.40
71084;DHT22;58741;52.672;13.548;2023-10-08T16:07:50;13.50;95.70